createdAt,value
2022-08-29T00:01:26.181Z,63.76
2022-08-29T00:03:58.063Z,64.00
2022-08-29T00:06:25.985Z,64.13
2022-08-29T00:08:53.278Z,63.66
2022-08-29T00:11:21.491Z,64.16
2022-08-29T00:13:49.637Z,63.83
2022-08-29T00:16:16.775Z,63.97
2022-08-29T00:18:43.870Z,63.93
2022-08-29T00:21:10.901Z,64.00
2022-08-29T00:23:37.960Z,63.98
2022-08-29T00:26:05.230Z,63.99
2022-08-29T00:28:32.936Z,64.13
2022-08-29T00:31:00.007Z,63.69
2022-08-29T00:33:27.089Z,63.77
2022-08-29T00:35:54.873Z,64.13
2022-08-29T00:38:27.715Z,63.99
2022-08-29T00:40:57.606Z,64.67
2022-08-29T00:43:29.842Z,64.21
2022-08-29T00:46:41.890Z,64.72
2022-08-29T00:49:14.321Z,65.30
2022-08-29T00:51:41.904Z,64.58
2022-08-29T00:54:11.482Z,65.35
2022-08-29T00:56:41.720Z,65.11
2022-08-29T00:59:19.052Z,65.48
2022-08-29T01:01:47.087Z,65.61
2022-08-29T01:04:23.550Z,65.84
2022-08-29T01:06:52.847Z,65.57
2022-08-29T01:09:21.038Z,65.80
2022-08-29T01:12:07.083Z,65.68
2022-08-29T01:14:38.559Z,65.89
2022-08-29T01:17:09.473Z,65.44
2022-08-29T01:19:54.208Z,65.64
2022-08-29T01:23:03.268Z,65.48
2022-08-29T01:25:37.875Z,66.05
2022-08-29T01:28:13.367Z,65.88
2022-08-29T01:31:07.288Z,66.04
2022-08-29T01:33:43.187Z,65.44
2022-08-29T01:36:15.458Z,65.67
2022-08-29T01:38:43.156Z,65.32
2022-08-29T01:41:11.426Z,65.53
2022-08-29T01:43:45.996Z,65.44
2022-08-29T01:46:20.136Z,65.70
2022-08-29T01:48:47.350Z,65.52
2022-08-29T01:51:15.693Z,65.12
2022-08-29T01:53:43.646Z,65.07
2022-08-29T01:56:22.702Z,65.24
2022-08-29T01:58:52.977Z,64.84
2022-08-29T02:01:25.466Z,64.75
2022-08-29T02:03:53.256Z,65.53
2022-08-29T02:06:21.417Z,65.36
2022-08-29T02:08:48.618Z,65.01
2022-08-29T02:11:17.898Z,65.33
2022-08-29T02:13:56.382Z,64.93
2022-08-29T02:16:26.184Z,65.07
2022-08-29T02:18:54.795Z,65.05
2022-08-29T02:21:26.143Z,65.14
2022-08-29T02:23:55.187Z,65.43
2022-08-29T02:26:23.325Z,65.44
2022-08-29T02:28:51.891Z,65.68
2022-08-29T02:31:21.472Z,65.85
2022-08-29T02:33:49.473Z,65.25
2022-08-29T02:36:17.199Z,65.16
2022-08-29T02:38:47.159Z,65.60
2022-08-29T02:41:15.117Z,65.45
2022-08-29T02:43:42.655Z,65.29
2022-08-29T02:46:16.546Z,65.14
2022-08-29T02:48:52.259Z,65.68
2022-08-29T02:51:31.690Z,65.28
2022-08-29T02:54:00.233Z,65.17
2022-08-29T02:56:28.662Z,66.00
2022-08-29T02:58:56.220Z,65.82
2022-08-29T03:01:24.768Z,65.50
2022-08-29T03:03:52.570Z,65.48
2022-08-29T03:06:21.305Z,65.51
2022-08-29T03:08:48.717Z,65.76
2022-08-29T03:11:17.328Z,66.06
2022-08-29T03:13:46.161Z,66.13
2022-08-29T03:16:13.656Z,65.68
2022-08-29T03:18:41.305Z,65.77
2022-08-29T03:21:18.115Z,65.68
2022-08-29T03:23:45.194Z,65.55
2022-08-29T03:26:13.590Z,65.77
2022-08-29T03:28:41.521Z,65.49
2022-08-29T03:31:08.682Z,65.83
2022-08-29T03:33:36.764Z,65.83
2022-08-29T03:36:06.978Z,66.04
2022-08-29T03:38:41.099Z,65.93
2022-08-29T03:41:08.851Z,66.14
2022-08-29T03:43:36.196Z,66.40
2022-08-29T03:46:03.361Z,66.53
2022-08-29T03:48:30.380Z,66.41
2022-08-29T03:50:58.631Z,66.68
2022-08-29T03:53:25.652Z,67.19
2022-08-29T03:55:54.529Z,66.94
2022-08-29T03:58:21.791Z,67.10
2022-08-29T04:00:48.846Z,67.28
2022-08-29T04:03:16.018Z,66.92
2022-08-29T04:05:43.095Z,66.53
2022-08-29T04:08:10.242Z,66.58
2022-08-29T04:10:39.265Z,66.68
2022-08-29T04:13:08.716Z,66.29
2022-08-29T04:15:39.575Z,66.23
2022-08-29T04:18:08.778Z,66.64
2022-08-29T04:20:41.759Z,66.57
2022-08-29T04:23:10.513Z,66.11
2022-08-29T04:25:37.943Z,66.75
2022-08-29T04:28:07.825Z,66.32
2022-08-29T04:30:37.234Z,66.78
2022-08-29T04:33:04.438Z,66.68
2022-08-29T04:35:32.033Z,66.98
2022-08-29T04:37:59.288Z,67.33
2022-08-29T04:40:26.331Z,67.05
2022-08-29T04:42:53.769Z,67.55
2022-08-29T04:45:23.484Z,67.54
2022-08-29T04:47:51.189Z,67.95
2022-08-29T04:50:23.060Z,67.96
2022-08-29T04:52:55.551Z,67.85
2022-08-29T04:55:24.514Z,67.86
2022-08-29T04:57:56.322Z,67.59
2022-08-29T05:00:28.085Z,67.40
2022-08-29T05:02:55.905Z,67.99
2022-08-29T05:05:23.153Z,68.31
2022-08-29T05:07:50.216Z,67.45
2022-08-29T05:10:20.191Z,67.44
2022-08-29T05:12:48.532Z,67.97
2022-08-29T05:15:16.843Z,67.97
2022-08-29T05:17:44.469Z,67.69
2022-08-29T05:20:13.261Z,68.18
2022-08-29T05:22:42.493Z,67.92
2022-08-29T05:25:17.941Z,68.06
2022-08-29T05:27:46.811Z,67.93
2022-08-29T05:30:14.361Z,68.04
2022-08-29T05:32:41.401Z,68.18
2022-08-29T05:35:09.333Z,67.88
2022-08-29T05:37:36.688Z,67.86
2022-08-29T05:40:05.139Z,67.91
2022-08-29T05:42:32.409Z,68.33
2022-08-29T05:44:59.440Z,68.07
2022-08-29T05:47:26.643Z,68.04
2022-08-29T05:49:53.725Z,67.87
2022-08-29T05:52:21.499Z,67.76
2022-08-29T05:54:48.716Z,67.95
2022-08-29T05:57:20.053Z,67.90
2022-08-29T05:59:49.393Z,68.20
2022-08-29T06:02:17.528Z,68.12
2022-08-29T06:04:44.817Z,68.80
2022-08-29T06:07:12.913Z,68.31
2022-08-29T06:09:41.924Z,68.64
2022-08-29T06:12:10.217Z,67.91
2022-08-29T06:14:38.088Z,68.31
2022-08-29T06:17:08.674Z,68.25
2022-08-29T06:19:37.058Z,68.21
2022-08-29T06:22:09.962Z,67.96
2022-08-29T06:24:39.675Z,68.22
2022-08-29T06:27:07.182Z,68.14
2022-08-29T06:29:34.712Z,67.82
2022-08-29T06:32:10.686Z,67.64
2022-08-29T06:34:37.704Z,67.18
2022-08-29T06:37:04.796Z,67.10
2022-08-29T06:39:31.964Z,66.45
2022-08-29T06:41:59.345Z,66.82
2022-08-29T06:44:26.629Z,66.32
2022-08-29T06:46:58.365Z,66.77
2022-08-29T06:49:26.292Z,66.42
2022-08-29T06:51:57.693Z,66.11
2022-08-29T06:54:28.643Z,65.86
2022-08-29T06:56:57.622Z,65.77
2022-08-29T06:59:25.429Z,65.64
2022-08-29T07:01:52.771Z,65.29
2022-08-29T07:04:21.042Z,64.84
2022-08-29T07:06:49.382Z,65.07
2022-08-29T07:09:16.441Z,64.71
2022-08-29T07:11:43.553Z,64.50
2022-08-29T07:14:11.954Z,64.10
2022-08-29T07:16:40.496Z,63.99
2022-08-29T07:19:10.093Z,63.64
2022-08-29T07:21:38.331Z,63.47
2022-08-29T07:24:06.598Z,63.12
2022-08-29T07:26:38.814Z,62.57
2022-08-29T07:29:15.467Z,62.37
2022-08-29T07:31:42.826Z,61.91
2022-08-29T07:34:11.131Z,61.82
2022-08-29T07:36:38.717Z,61.96
2022-08-29T07:39:12.311Z,61.65
2022-08-29T07:41:41.598Z,60.96
2022-08-29T07:44:10.025Z,60.79
2022-08-29T07:46:37.505Z,61.06
2022-08-29T07:49:05.425Z,60.96
2022-08-29T07:51:32.909Z,60.77
2022-08-29T07:54:00.254Z,60.34
2022-08-29T07:56:37.722Z,60.11
2022-08-29T07:59:06.560Z,59.52
2022-08-29T08:01:35.646Z,59.39
2022-08-29T08:04:03.423Z,59.56
2022-08-29T08:06:30.943Z,59.23
2022-08-29T08:08:58.091Z,58.34
2022-08-29T08:11:26.797Z,57.92
2022-08-29T08:13:55.741Z,58.01
2022-08-29T08:16:25.523Z,57.56
2022-08-29T08:18:56.029Z,57.66
2022-08-29T08:21:25.199Z,57.50
2022-08-29T08:23:52.961Z,57.09
2022-08-29T08:26:20.842Z,56.84
2022-08-29T08:28:48.605Z,57.37
2022-08-29T08:31:16.814Z,56.68
2022-08-29T08:33:45.604Z,56.82
2022-08-29T08:36:15.608Z,56.55
2022-08-29T08:38:43.509Z,55.98
2022-08-29T08:41:39.115Z,56.16
2022-08-29T08:45:02.443Z,56.40
2022-08-29T08:47:57.349Z,56.03
2022-08-29T08:51:03.928Z,55.94
2022-08-29T08:53:40.272Z,55.14
2022-08-29T08:56:29.121Z,55.68
2022-08-29T08:59:11.361Z,55.71
2022-08-29T09:02:06.631Z,55.83
2022-08-29T09:04:57.296Z,56.22
2022-08-29T09:07:37.119Z,56.00
2022-08-29T09:10:30.345Z,55.73
2022-08-29T09:13:36.048Z,55.63
2022-08-29T09:16:37.767Z,56.15
2022-08-29T09:19:10.813Z,55.05
2022-08-29T09:21:52.006Z,55.27
2022-08-29T09:24:57.428Z,55.36
2022-08-29T09:27:29.144Z,54.31
2022-08-29T09:30:28.112Z,55.43
2022-08-29T09:33:11.963Z,54.08
2022-08-29T09:35:48.036Z,53.58
2022-08-29T09:38:17.930Z,53.51
2022-08-29T09:40:53.076Z,53.17
2022-08-29T09:43:46.799Z,52.81
2022-08-29T09:46:21.444Z,53.28
2022-08-29T09:49:16.313Z,53.99
2022-08-29T09:51:48.450Z,53.04
2022-08-29T09:54:18.493Z,52.89
2022-08-29T09:57:02.981Z,52.60
2022-08-29T09:59:36.044Z,52.51
2022-08-29T10:02:28.356Z,52.83
2022-08-29T10:05:02.872Z,52.20
2022-08-29T10:07:52.451Z,51.73
2022-08-29T10:10:26.933Z,51.29
2022-08-29T10:13:20.478Z,52.43
2022-08-29T10:15:55.702Z,51.97
2022-08-29T10:18:43.064Z,50.52
2022-08-29T10:21:40.098Z,49.98
2022-08-29T10:24:28.538Z,51.38
2022-08-29T10:27:44.127Z,51.70
2022-08-29T10:30:23.333Z,50.67
2022-08-29T10:33:42.421Z,51.37
2022-08-29T10:36:33.250Z,48.90
2022-08-29T10:39:15.113Z,49.68
2022-08-29T10:41:50.700Z,49.99
2022-08-29T10:44:35.433Z,50.41
2022-08-29T10:47:47.113Z,50.29
2022-08-29T10:50:45.779Z,49.90
2022-08-29T10:53:26.401Z,49.88
2022-08-29T10:56:13.552Z,49.44
2022-08-29T10:59:18.531Z,48.48
2022-08-29T11:02:08.817Z,49.43
2022-08-29T11:04:45.902Z,48.59
2022-08-29T11:07:28.271Z,48.02
2022-08-29T11:10:09.215Z,47.26
2022-08-29T11:12:54.451Z,47.05
2022-08-29T11:15:56.209Z,48.08
2022-08-29T11:18:38.692Z,47.80
2022-08-29T11:21:32.609Z,48.25
2022-08-29T11:24:03.205Z,47.48
2022-08-29T11:26:51.849Z,47.72
2022-08-29T11:29:40.303Z,45.79
2022-08-29T11:32:42.399Z,44.84
2022-08-29T11:35:39.917Z,45.64
2022-08-29T11:38:24.373Z,45.76
2022-08-29T11:41:28.715Z,46.01
2022-08-29T11:44:17.874Z,46.45
2022-08-29T11:46:53.689Z,45.22
2022-08-29T11:49:49.187Z,46.56
2022-08-29T11:52:25.921Z,45.79
2022-08-29T11:55:43.723Z,45.83
2022-08-29T11:58:16.835Z,45.65
2022-08-29T12:00:53.429Z,45.47
2022-08-29T12:03:37.081Z,44.41
2022-08-29T12:06:32.950Z,44.48
2022-08-29T12:09:14.118Z,45.20
2022-08-29T12:12:12.587Z,43.93
2022-08-29T12:14:52.787Z,42.84
2022-08-29T12:17:23.356Z,42.93
2022-08-29T12:19:59.898Z,43.04
2022-08-29T12:22:54.414Z,43.05
2022-08-29T12:25:44.744Z,42.91
2022-08-29T12:28:32.929Z,42.28
2022-08-29T12:31:01.318Z,42.01
2022-08-29T12:34:05.865Z,42.09
2022-08-29T12:36:52.113Z,41.16
2022-08-29T12:40:13.894Z,41.91
2022-08-29T12:43:18.259Z,42.62
2022-08-29T12:45:47.976Z,41.31
2022-08-29T12:48:24.033Z,40.54
2022-08-29T12:50:53.785Z,39.10
2022-08-29T12:53:33.344Z,38.36
2022-08-29T12:56:22.072Z,39.24
2022-08-29T12:58:52.000Z,38.42
2022-08-29T13:01:39.426Z,38.96
2022-08-29T13:04:17.950Z,38.75
2022-08-29T13:06:59.401Z,37.72
2022-08-29T13:09:44.489Z,37.38
2022-08-29T13:12:24.320Z,38.09
2022-08-29T13:15:02.011Z,37.84
2022-08-29T13:17:41.827Z,38.72
2022-08-29T13:20:58.279Z,39.45
2022-08-29T13:23:33.300Z,37.95
2022-08-29T13:26:09.464Z,38.03
2022-08-29T13:28:53.589Z,37.71
2022-08-29T13:31:21.593Z,36.21
2022-08-29T13:33:51.708Z,35.82
2022-08-29T13:36:31.981Z,35.40
2022-08-29T13:39:17.372Z,36.18
2022-08-29T13:41:45.942Z,36.64
2022-08-29T13:44:29.917Z,36.87
2022-08-29T13:47:01.057Z,36.86
2022-08-29T13:49:35.241Z,36.75
2022-08-29T13:52:03.109Z,36.81
2022-08-29T13:54:33.139Z,36.92
2022-08-29T13:57:04.470Z,36.79
2022-08-29T13:59:36.763Z,37.34
2022-08-29T14:02:09.250Z,37.40
2022-08-29T14:04:41.226Z,37.77
2022-08-29T14:07:27.263Z,37.17
2022-08-29T14:09:54.659Z,36.39
2022-08-29T14:12:32.909Z,36.72
2022-08-29T14:15:08.735Z,35.58
2022-08-29T14:17:44.325Z,35.74
2022-08-29T14:20:13.174Z,35.55
2022-08-29T14:22:40.903Z,35.03
2022-08-29T14:25:10.139Z,34.70
2022-08-29T14:27:38.892Z,34.80
2022-08-29T14:30:10.482Z,34.98
2022-08-29T14:32:37.938Z,34.88
2022-08-29T14:35:06.336Z,34.49
2022-08-29T14:37:36.367Z,34.34
2022-08-29T14:40:09.010Z,33.59
2022-08-29T14:42:38.206Z,33.09
2022-08-29T14:45:08.771Z,32.16
2022-08-29T14:47:37.888Z,32.67
2022-08-29T14:50:07.118Z,32.23
2022-08-29T14:52:34.753Z,32.18
2022-08-29T14:55:02.082Z,32.24
2022-08-29T14:57:29.322Z,32.27
2022-08-29T14:59:56.272Z,32.55
2022-08-29T15:02:23.792Z,32.78
2022-08-29T15:04:56.304Z,32.53
2022-08-29T15:07:23.557Z,33.00
2022-08-29T15:09:51.088Z,33.71
2022-08-29T15:12:18.401Z,33.91
2022-08-29T15:14:46.132Z,33.04
2022-08-29T15:17:14.856Z,33.30
2022-08-29T15:22:29.237Z,32.70
2022-08-29T15:24:56.404Z,33.52
2022-08-29T15:27:27.328Z,33.41
2022-08-29T15:29:56.820Z,32.74
2022-08-29T15:32:26.516Z,32.22
2022-08-29T15:34:53.653Z,32.19
2022-08-29T15:37:21.613Z,30.90
2022-08-29T15:39:55.104Z,30.00
2022-08-29T15:42:28.602Z,29.77
2022-08-29T15:45:02.447Z,28.71
2022-08-29T15:47:34.400Z,29.11
2022-08-29T15:50:02.935Z,29.38
2022-08-29T15:52:31.299Z,30.11
2022-08-29T15:54:58.637Z,30.89
2022-08-29T15:57:26.217Z,30.49
2022-08-29T15:59:58.107Z,31.23
2022-08-29T16:02:27.951Z,31.42
2022-08-29T16:04:57.481Z,32.12
2022-08-29T16:07:29.367Z,32.68
2022-08-29T16:10:00.241Z,32.74
2022-08-29T16:12:31.352Z,33.23
2022-08-29T16:15:00.374Z,33.30
2022-08-29T16:17:32.228Z,33.79
2022-08-29T16:20:01.403Z,33.48
2022-08-29T16:22:29.255Z,33.22
2022-08-29T16:24:56.814Z,33.06
2022-08-29T16:27:24.489Z,32.58
2022-08-29T16:29:53.569Z,32.66
2022-08-29T16:32:21.014Z,32.49
2022-08-29T16:34:48.213Z,32.57
2022-08-29T16:37:16.125Z,32.87
2022-08-29T16:39:43.486Z,33.13
2022-08-29T16:42:12.243Z,33.17
2022-08-29T16:44:40.561Z,33.82
2022-08-29T16:47:07.779Z,33.93
2022-08-29T16:49:35.128Z,34.68
2022-08-29T16:52:03.638Z,34.39
2022-08-29T16:54:31.202Z,34.87
2022-08-29T16:56:58.872Z,35.36
2022-08-29T16:59:26.079Z,35.77
2022-08-29T17:01:54.276Z,35.90
2022-08-29T17:04:27.778Z,36.80
2022-08-29T17:06:56.028Z,37.01
2022-08-29T17:09:24.569Z,36.82
2022-08-29T17:11:53.433Z,37.42
2022-08-29T17:14:22.588Z,37.18
2022-08-29T17:16:51.953Z,37.61
2022-08-29T17:19:21.169Z,38.33
2022-08-29T17:21:48.888Z,38.40
2022-08-29T17:24:17.025Z,38.79
2022-08-29T17:26:47.184Z,38.90
2022-08-29T17:29:16.023Z,39.58
2022-08-29T17:31:43.849Z,39.17
2022-08-29T17:34:12.205Z,40.04
2022-08-29T17:36:40.839Z,39.95
2022-08-29T17:39:08.919Z,39.90
2022-08-29T17:41:37.628Z,40.76
2022-08-29T17:44:07.871Z,41.01
2022-08-29T17:46:35.416Z,40.95
2022-08-29T17:49:07.847Z,41.22
2022-08-29T17:51:35.807Z,41.40
2022-08-29T17:54:04.546Z,41.81
2022-08-29T17:56:55.484Z,42.10
2022-08-29T17:59:27.410Z,42.00
2022-08-29T18:01:55.904Z,42.37
2022-08-29T18:04:23.217Z,42.55
2022-08-29T18:06:51.966Z,42.56
2022-08-29T18:09:21.277Z,43.13
2022-08-29T18:11:51.399Z,43.15
2022-08-29T18:14:22.716Z,43.38
2022-08-29T18:16:52.516Z,43.57
2022-08-29T18:19:24.319Z,43.77
2022-08-29T18:21:53.475Z,44.11
2022-08-29T18:24:21.249Z,44.21
2022-08-29T18:26:49.008Z,44.05
2022-08-29T18:29:16.794Z,44.36
2022-08-29T18:31:44.172Z,44.64
2022-08-29T18:34:12.668Z,44.69
2022-08-29T18:36:43.339Z,45.25
2022-08-29T18:39:12.223Z,45.42
2022-08-29T18:41:40.225Z,45.26
2022-08-29T18:44:07.662Z,45.39
2022-08-29T18:46:35.084Z,45.55
2022-08-29T18:49:02.803Z,45.66
2022-08-29T18:51:32.441Z,45.96
2022-08-29T18:53:59.756Z,45.91
2022-08-29T18:56:26.842Z,46.48
2022-08-29T18:58:58.804Z,46.79
2022-08-29T19:01:29.559Z,46.89
2022-08-29T19:04:00.128Z,47.07
2022-08-29T19:06:28.079Z,46.69
2022-08-29T19:08:56.742Z,46.96
2022-08-29T19:11:25.365Z,46.92
2022-08-29T19:13:52.897Z,47.35
2022-08-29T19:16:22.616Z,47.50
2022-08-29T19:18:50.332Z,47.67
2022-08-29T19:21:17.489Z,47.58
2022-08-29T19:23:51.929Z,48.23
2022-08-29T19:26:28.204Z,48.05
2022-08-29T19:28:59.005Z,48.09
2022-08-29T19:31:27.758Z,48.22
2022-08-29T19:33:55.466Z,48.13
2022-08-29T19:36:23.832Z,48.60
2022-08-29T19:38:51.536Z,48.63
2022-08-29T19:41:19.156Z,48.65
2022-08-29T19:43:46.167Z,48.71
2022-08-29T19:46:18.298Z,49.39
2022-08-29T19:48:48.668Z,48.92
2022-08-29T19:51:24.713Z,49.51
2022-08-29T19:53:59.389Z,49.37
2022-08-29T19:56:26.976Z,50.10
2022-08-29T19:58:55.005Z,49.64
2022-08-29T20:01:22.269Z,50.18
2022-08-29T20:03:49.457Z,50.16
2022-08-29T20:06:16.875Z,49.85
2022-08-29T20:08:49.143Z,50.30
2022-08-29T20:11:25.004Z,49.96
2022-08-29T20:13:58.268Z,49.92
2022-08-29T20:16:31.527Z,50.55
2022-08-29T20:18:59.817Z,50.33
2022-08-29T20:21:28.779Z,50.37
2022-08-29T20:23:58.332Z,50.20
2022-08-29T20:26:32.305Z,50.46
2022-08-29T20:29:01.343Z,50.57
2022-08-29T20:31:29.639Z,50.15
2022-08-29T20:33:56.891Z,51.01
2022-08-29T20:36:43.293Z,50.98
2022-08-29T20:39:15.332Z,51.02
2022-08-29T20:41:51.338Z,51.37
2022-08-29T20:44:20.476Z,50.97
2022-08-29T20:46:48.854Z,51.44
2022-08-29T20:49:21.804Z,51.74
2022-08-29T20:51:49.845Z,51.69
2022-08-29T20:54:21.608Z,51.52
2022-08-29T20:56:49.484Z,51.33
2022-08-29T20:59:17.177Z,51.57
2022-08-29T21:01:44.846Z,51.60
2022-08-29T21:04:32.264Z,51.76
2022-08-29T21:07:08.777Z,52.30
2022-08-29T21:09:38.021Z,51.87
2022-08-29T21:12:05.269Z,52.27
2022-08-29T21:14:32.812Z,52.88
2022-08-29T21:16:59.919Z,52.54
2022-08-29T21:19:29.960Z,52.70
2022-08-29T21:21:59.853Z,52.90
2022-08-29T21:24:28.944Z,52.76
2022-08-29T21:26:56.999Z,52.40
2022-08-29T21:29:24.105Z,52.73
2022-08-29T21:31:53.897Z,52.50
2022-08-29T21:34:22.283Z,53.14
2022-08-29T21:36:50.286Z,53.13
2022-08-29T21:39:27.850Z,52.61
2022-08-29T21:41:56.650Z,52.55
2022-08-29T21:44:23.990Z,52.63
2022-08-29T21:46:51.806Z,52.43
2022-08-29T21:49:21.828Z,53.25
2022-08-29T21:51:49.538Z,52.88
2022-08-29T21:54:18.119Z,52.51
2022-08-29T21:56:46.662Z,52.63
2022-08-29T21:59:16.591Z,52.58
2022-08-29T22:01:46.036Z,53.16
2022-08-29T22:04:28.193Z,52.96
2022-08-29T22:06:57.198Z,53.01
2022-08-29T22:09:25.807Z,52.73
2022-08-29T22:11:53.145Z,52.65
2022-08-29T22:14:20.055Z,52.87
2022-08-29T22:16:47.540Z,52.71
2022-08-29T22:19:16.875Z,53.01
2022-08-29T22:21:54.473Z,52.97
2022-08-29T22:24:21.840Z,52.70
2022-08-29T22:26:49.680Z,53.01
2022-08-29T22:29:16.716Z,52.84
2022-08-29T22:31:45.051Z,52.76
2022-08-29T22:34:17.993Z,53.19
2022-08-29T22:36:45.411Z,53.05
2022-08-29T22:39:12.832Z,53.12
2022-08-29T22:41:44.230Z,52.92
2022-08-29T22:44:59.666Z,53.00
2022-08-29T22:47:02.262Z,52.90
2022-08-29T22:49:33.295Z,53.02
2022-08-29T22:52:01.337Z,53.51
2022-08-29T22:54:37.519Z,52.89
2022-08-29T22:57:17.215Z,53.64
2022-08-29T22:59:46.028Z,53.14
2022-08-29T23:02:13.838Z,52.90
2022-08-29T23:04:41.480Z,53.50
2022-08-29T23:07:11.699Z,53.12
2022-08-29T23:09:42.113Z,53.40
2022-08-29T23:12:10.700Z,53.35
2022-08-29T23:14:39.889Z,53.33
2022-08-29T23:19:37.413Z,53.30
2022-08-29T23:22:10.402Z,53.54
2022-08-29T23:24:39.237Z,53.14
2022-08-29T23:27:08.229Z,53.70
2022-08-29T23:29:37.048Z,53.73
2022-08-29T23:32:09.681Z,53.25
2022-08-29T23:34:36.789Z,53.26
2022-08-29T23:37:04.334Z,53.84
2022-08-29T23:39:31.668Z,54.04
2022-08-29T23:41:59.612Z,53.76
2022-08-29T23:44:27.181Z,54.05
2022-08-29T23:46:57.564Z,54.26
2022-08-29T23:49:25.372Z,54.17
2022-08-29T23:51:52.549Z,54.32
2022-08-29T23:54:19.546Z,53.91
2022-08-29T23:56:46.645Z,54.04
2022-08-29T23:59:33.748Z,54.14
